createdAt,value
2022-11-22T00:00:12.449Z,0
2022-11-22T00:01:12.725Z,0
2022-11-22T00:02:13.159Z,0
2022-11-22T00:03:12.895Z,0
2022-11-22T00:04:13.025Z,0
2022-11-22T00:05:12.943Z,0
2022-11-22T00:06:12.956Z,0
2022-11-22T00:07:12.991Z,0
2022-11-22T00:08:12.971Z,0
2022-11-22T00:09:13.110Z,0
2022-11-22T00:10:12.616Z,0
2022-11-22T00:11:12.927Z,0
2022-11-22T00:12:12.891Z,0
2022-11-22T00:13:13.239Z,0
2022-11-22T00:14:12.917Z,0
2022-11-22T00:15:13.206Z,0
2022-11-22T00:16:13.223Z,0
2022-11-22T00:17:13.234Z,0
2022-11-22T00:18:13.015Z,0
2022-11-22T00:19:13.274Z,0
2022-11-22T00:20:12.943Z,0
2022-11-22T00:21:13.310Z,0
2022-11-22T00:22:13.075Z,0
2022-11-22T00:23:13.347Z,0
2022-11-22T00:24:13.093Z,0
2022-11-22T00:25:13.124Z,0
2022-11-22T00:26:12.916Z,0
2022-11-22T00:27:13.491Z,0
2022-11-22T00:28:13.171Z,0
2022-11-22T00:29:12.974Z,0
2022-11-22T00:30:13.231Z,0
2022-11-22T00:31:13.223Z,0
2022-11-22T00:32:13.250Z,0
2022-11-22T00:33:13.252Z,0
2022-11-22T00:34:13.256Z,0
2022-11-22T00:35:13.287Z,0
2022-11-22T00:36:13.589Z,0
2022-11-22T00:37:13.584Z,0
2022-11-22T00:38:13.345Z,0
2022-11-22T00:39:13.611Z,0
2022-11-22T00:40:13.728Z,0
2022-11-22T00:41:12.925Z,0
2022-11-22T00:42:13.149Z,0
2022-11-22T00:43:13.492Z,0
2022-11-22T00:44:13.694Z,0
2022-11-22T00:45:13.751Z,0
2022-11-22T00:46:13.234Z,0
2022-11-22T00:47:13.239Z,0
2022-11-22T00:48:13.758Z,0
2022-11-22T00:49:13.533Z,0
2022-11-22T00:50:13.549Z,0
2022-11-22T00:51:13.282Z,0
2022-11-22T00:52:13.822Z,0
2022-11-22T00:53:13.325Z,0
2022-11-22T00:54:13.609Z,0
2022-11-22T00:55:13.632Z,0
2022-11-22T00:56:13.639Z,0
2022-11-22T00:57:13.665Z,0
2022-11-22T00:58:13.925Z,0
2022-11-22T00:59:13.756Z,0
2022-11-22T01:00:13.465Z,0
2022-11-22T01:01:14.095Z,0
2022-11-22T01:02:14.013Z,0
2022-11-22T01:03:13.743Z,0
2022-11-22T01:04:14.048Z,0
2022-11-22T01:05:14.035Z,0
2022-11-22T01:06:13.800Z,0
2022-11-22T01:07:14.136Z,0
2022-11-22T01:08:13.833Z,0
2022-11-22T01:09:13.843Z,0
2022-11-22T01:10:13.366Z,0
2022-11-22T01:11:13.876Z,0
2022-11-22T01:12:14.166Z,0
2022-11-22T01:13:14.195Z,0
2022-11-22T01:14:14.205Z,0
2022-11-22T01:15:14.009Z,0
2022-11-22T01:16:13.964Z,0
2022-11-22T01:17:14.287Z,0
2022-11-22T01:18:13.997Z,0
2022-11-22T01:19:14.249Z,0
2022-11-22T01:20:14.033Z,0
2022-11-22T01:21:14.063Z,0
2022-11-22T01:22:14.348Z,0
2022-11-22T01:23:14.330Z,0
2022-11-22T01:24:14.112Z,0
2022-11-22T01:25:14.126Z,0
2022-11-22T01:26:14.416Z,0
2022-11-22T01:27:14.407Z,0
2022-11-22T01:28:14.176Z,0
2022-11-22T01:29:14.436Z,0
2022-11-22T01:30:14.471Z,0
2022-11-22T01:31:14.583Z,0
2022-11-22T01:32:14.493Z,0
2022-11-22T01:33:14.312Z,0
2022-11-22T01:34:14.524Z,0
2022-11-22T01:35:15.382Z,0
2022-11-22T01:36:14.294Z,0
2022-11-22T01:37:14.067Z,0
2022-11-22T01:38:14.084Z,0
2022-11-22T01:39:14.616Z,0
2022-11-22T01:40:14.363Z,0
2022-11-22T01:41:14.402Z,0
2022-11-22T01:42:14.400Z,0
2022-11-22T01:43:14.176Z,0
2022-11-22T01:44:14.438Z,0
2022-11-22T01:45:14.709Z,0
2022-11-22T01:46:14.742Z,0
2022-11-22T01:47:14.834Z,0
2022-11-22T01:48:14.763Z,0
2022-11-22T01:49:14.825Z,0
2022-11-22T01:50:14.276Z,0
2022-11-22T01:51:14.553Z,0
2022-11-22T01:52:14.847Z,0
2022-11-22T01:53:14.851Z,0
2022-11-22T01:54:14.869Z,0
2022-11-22T01:55:14.598Z,0
2022-11-22T01:56:14.896Z,0
2022-11-22T01:57:14.901Z,0
2022-11-22T01:58:14.662Z,0
2022-11-22T01:59:14.680Z,0
2022-11-22T02:00:14.707Z,0
2022-11-22T02:01:14.877Z,0
2022-11-22T02:02:14.470Z,0
2022-11-22T02:03:15.067Z,0
2022-11-22T02:04:14.499Z,0
2022-11-22T02:05:15.094Z,0
2022-11-22T02:06:15.063Z,0
2022-11-22T02:07:15.063Z,0
2022-11-22T02:08:14.572Z,0
2022-11-22T02:09:14.836Z,0
2022-11-22T02:10:15.123Z,0
2022-11-22T02:11:15.344Z,0
2022-11-22T02:12:14.677Z,0
2022-11-22T02:13:14.654Z,0
2022-11-22T02:14:14.417Z,0
2022-11-22T02:15:14.949Z,0
2022-11-22T02:16:15.287Z,0
2022-11-22T02:17:15.332Z,0
2022-11-22T02:18:15.046Z,0
2022-11-22T02:19:15.076Z,0
2022-11-22T02:20:15.032Z,0
2022-11-22T02:21:15.105Z,0
2022-11-22T02:22:15.078Z,0
2022-11-22T02:23:15.107Z,0
2022-11-22T02:24:15.349Z,0
2022-11-22T02:25:15.529Z,0
2022-11-22T02:26:15.294Z,0
2022-11-22T02:27:15.422Z,0
2022-11-22T02:28:15.312Z,0
2022-11-22T02:29:15.437Z,0
2022-11-22T02:30:15.354Z,0
2022-11-22T02:31:15.205Z,0
2022-11-22T02:32:15.229Z,0
2022-11-22T02:33:15.505Z,0
2022-11-22T02:34:15.272Z,0
2022-11-22T02:35:15.327Z,0
2022-11-22T02:36:15.274Z,0
2022-11-22T02:37:15.622Z,0
2022-11-22T02:38:15.320Z,0
2022-11-22T02:39:15.333Z,0
2022-11-22T02:40:15.629Z,0
2022-11-22T02:41:15.630Z,0
2022-11-22T02:42:15.637Z,0
2022-11-22T02:43:15.389Z,0
2022-11-22T02:44:15.409Z,0
2022-11-22T02:45:15.693Z,0
2022-11-22T02:46:15.446Z,0
2022-11-22T02:47:15.726Z,0
2022-11-22T02:48:15.223Z,0
2022-11-22T02:49:15.500Z,0
2022-11-22T02:50:15.507Z,0
2022-11-22T02:51:15.845Z,0
2022-11-22T02:52:15.799Z,0
2022-11-22T02:53:15.871Z,0
2022-11-22T02:54:15.325Z,0
2022-11-22T02:55:15.600Z,0
2022-11-22T02:56:15.859Z,0
2022-11-22T02:57:15.382Z,0
2022-11-22T02:58:15.664Z,0
2022-11-22T02:59:15.930Z,0
2022-11-22T03:00:15.678Z,0
2022-11-22T03:01:16.235Z,0
2022-11-22T03:02:15.968Z,0
2022-11-22T03:03:15.473Z,0
2022-11-22T03:04:15.761Z,0
2022-11-22T03:05:15.497Z,0
2022-11-22T03:06:15.767Z,0
2022-11-22T03:07:16.396Z,0
2022-11-22T03:08:15.803Z,0
2022-11-22T03:09:16.125Z,0
2022-11-22T03:10:15.833Z,0
2022-11-22T03:11:15.852Z,0
2022-11-22T03:12:15.599Z,0
2022-11-22T03:13:15.887Z,0
2022-11-22T03:14:15.905Z,0
2022-11-22T03:15:15.914Z,0
2022-11-22T03:16:15.924Z,0
2022-11-22T03:17:15.951Z,0
2022-11-22T03:18:15.700Z,0
2022-11-22T03:19:16.231Z,0
2022-11-22T03:20:15.990Z,0
2022-11-22T03:21:15.762Z,0
2022-11-22T03:22:18.847Z,0
2022-11-22T03:23:16.292Z,0
2022-11-22T03:24:16.323Z,0
2022-11-22T03:25:16.116Z,0
2022-11-22T03:26:16.139Z,0
2022-11-22T03:27:16.365Z,0
2022-11-22T03:28:16.337Z,0
2022-11-22T03:29:16.406Z,0
2022-11-22T03:30:16.152Z,0
2022-11-22T03:31:16.165Z,0
2022-11-22T03:32:15.929Z,0
2022-11-22T03:33:16.465Z,0
2022-11-22T03:34:16.216Z,0
2022-11-22T03:35:16.222Z,0
2022-11-22T03:36:16.251Z,0
2022-11-22T03:37:16.275Z,0
2022-11-22T03:38:16.594Z,0
2022-11-22T03:39:16.302Z,0
2022-11-22T03:40:16.040Z,0
2022-11-22T03:41:16.727Z,0
2022-11-22T03:42:24.121Z,0
2022-11-22T03:43:16.098Z,0
2022-11-22T03:44:16.379Z,0
2022-11-22T03:45:16.650Z,0
2022-11-22T03:46:16.407Z,0
2022-11-22T03:47:16.438Z,0
2022-11-22T03:48:16.708Z,0
2022-11-22T03:49:16.483Z,0
2022-11-22T03:50:16.731Z,0
2022-11-22T03:51:16.482Z,0
2022-11-22T03:52:16.508Z,0
2022-11-22T03:53:16.782Z,0
2022-11-22T03:54:16.607Z,0
2022-11-22T03:55:16.044Z,0
2022-11-22T03:56:16.836Z,0
2022-11-22T03:57:16.385Z,0
2022-11-22T03:58:16.339Z,0
2022-11-22T03:59:16.346Z,0
2022-11-22T04:00:16.885Z,0
2022-11-22T04:01:23.258Z,0
2022-11-22T04:02:16.905Z,0
2022-11-22T04:03:16.932Z,0
2022-11-22T04:04:16.436Z,0
2022-11-22T04:05:16.486Z,0
2022-11-22T04:06:16.997Z,0
2022-11-22T04:07:17.287Z,0
2022-11-22T04:08:17.023Z,0
2022-11-22T04:09:16.617Z,0
2022-11-22T04:10:24.674Z,0
2022-11-22T04:11:16.546Z,0
2022-11-22T04:12:17.078Z,0
2022-11-22T04:13:16.630Z,0
2022-11-22T04:14:17.112Z,0
2022-11-22T04:15:17.131Z,0
2022-11-22T04:16:16.920Z,0
2022-11-22T04:17:17.159Z,0
2022-11-22T04:18:17.175Z,0
2022-11-22T04:19:17.186Z,0
2022-11-22T04:20:17.201Z,0
2022-11-22T04:21:16.964Z,0
2022-11-22T04:22:16.454Z,0
2022-11-22T04:23:17.001Z,0
2022-11-22T04:24:17.029Z,0
2022-11-22T04:25:17.021Z,0
2022-11-22T04:26:17.369Z,0
2022-11-22T04:27:17.321Z,0
2022-11-22T04:28:17.035Z,0
2022-11-22T04:29:17.783Z,0
2022-11-22T04:30:23.512Z,0
2022-11-22T04:31:17.124Z,0
2022-11-22T04:32:17.135Z,0
2022-11-22T04:33:17.420Z,0
2022-11-22T04:34:17.164Z,0
2022-11-22T04:35:17.193Z,0
2022-11-22T04:36:20.157Z,0
2022-11-22T04:37:17.209Z,0
2022-11-22T04:38:16.975Z,0
2022-11-22T04:39:17.504Z,0
2022-11-22T04:40:17.309Z,0
2022-11-22T04:41:17.025Z,0
2022-11-22T04:42:17.609Z,0
2022-11-22T04:43:17.315Z,0
2022-11-22T04:44:17.487Z,0
2022-11-22T04:45:17.485Z,0
2022-11-22T04:46:17.804Z,0
2022-11-22T04:47:17.593Z,0
2022-11-22T04:48:17.507Z,0
2022-11-22T04:49:17.770Z,0
2022-11-22T04:50:17.419Z,0
2022-11-22T04:51:17.491Z,0
2022-11-22T04:52:17.439Z,0
2022-11-22T04:53:17.213Z,0
2022-11-22T04:54:17.474Z,0
2022-11-22T04:55:17.220Z,0
2022-11-22T04:56:17.507Z,0
2022-11-22T04:57:17.259Z,0
2022-11-22T04:58:17.620Z,0
2022-11-22T04:59:17.550Z,0
2022-11-22T05:00:17.612Z,0
2022-11-22T05:01:18.002Z,0
2022-11-22T05:02:17.502Z,0
2022-11-22T05:03:17.615Z,0
2022-11-22T05:04:17.878Z,0
2022-11-22T05:05:17.386Z,0
2022-11-22T05:06:17.942Z,0
2022-11-22T05:07:17.708Z,0
2022-11-22T05:08:17.973Z,0
2022-11-22T05:09:17.707Z,0
2022-11-22T05:10:21.397Z,0
2022-11-22T05:11:18.023Z,0
2022-11-22T05:12:18.027Z,0
2022-11-22T05:13:18.024Z,0
2022-11-22T05:14:18.097Z,0
2022-11-22T05:15:18.071Z,0
2022-11-22T05:16:17.597Z,0
2022-11-22T05:17:20.810Z,0
2022-11-22T05:18:17.849Z,0
2022-11-22T05:19:18.270Z,0
2022-11-22T05:20:17.648Z,0
2022-11-22T05:21:17.641Z,0
2022-11-22T05:22:17.915Z,0
2022-11-22T05:23:17.924Z,0
2022-11-22T05:24:17.678Z,0
2022-11-22T05:25:21.343Z,0
2022-11-22T05:26:18.235Z,0
2022-11-22T05:27:17.725Z,0
2022-11-22T05:28:18.060Z,0
2022-11-22T05:29:17.750Z,0
2022-11-22T05:30:18.398Z,0
2022-11-22T05:31:17.833Z,0
2022-11-22T05:32:17.809Z,0
2022-11-22T05:33:17.880Z,0
2022-11-22T05:34:18.092Z,0
2022-11-22T05:35:18.128Z,0
2022-11-22T05:36:17.875Z,0
2022-11-22T05:37:18.156Z,0
2022-11-22T05:38:17.910Z,0
2022-11-22T05:39:18.433Z,0
2022-11-22T05:40:18.189Z,0
2022-11-22T05:41:18.469Z,0
2022-11-22T05:42:18.218Z,0
2022-11-22T05:43:18.238Z,0
2022-11-22T05:44:18.512Z,0
2022-11-22T05:45:18.016Z,0
2022-11-22T05:46:24.952Z,0
2022-11-22T05:47:18.302Z,0
2022-11-22T05:48:17.818Z,0
2022-11-22T05:49:18.645Z,0
2022-11-22T05:50:18.372Z,0
2022-11-22T05:51:18.634Z,0
2022-11-22T05:52:18.371Z,0
2022-11-22T05:53:18.424Z,0
2022-11-22T05:54:17.892Z,0
2022-11-22T05:55:18.713Z,0
2022-11-22T05:56:18.708Z,0
2022-11-22T05:57:18.711Z,0
2022-11-22T05:58:18.476Z,0
2022-11-22T05:59:17.985Z,0
2022-11-22T06:00:18.531Z,0
2022-11-22T06:01:18.526Z,0
2022-11-22T06:02:19.323Z,0
2022-11-22T06:03:18.555Z,0
2022-11-22T06:04:18.823Z,0
2022-11-22T06:05:18.389Z,0
2022-11-22T06:06:18.882Z,0
2022-11-22T06:07:19.193Z,0
2022-11-22T06:08:18.633Z,0
2022-11-22T06:09:18.658Z,0
2022-11-22T06:10:18.677Z,0
2022-11-22T06:11:18.685Z,0
2022-11-22T06:12:18.694Z,0
2022-11-22T06:13:18.719Z,0
2022-11-22T06:14:18.476Z,0
2022-11-22T06:15:18.639Z,0
2022-11-22T06:16:19.038Z,0
2022-11-22T06:17:19.066Z,0
2022-11-22T06:18:19.111Z,0
2022-11-22T06:19:18.548Z,0
2022-11-22T06:20:19.189Z,0
2022-11-22T06:21:19.161Z,0
2022-11-22T06:22:19.062Z,0
2022-11-22T06:23:18.876Z,0
2022-11-22T06:24:18.887Z,0
2022-11-22T06:25:18.908Z,0
2022-11-22T06:26:19.183Z,0
2022-11-22T06:27:18.927Z,0
2022-11-22T06:28:19.208Z,0
2022-11-22T06:29:18.443Z,0
2022-11-22T06:30:18.973Z,0
2022-11-22T06:31:19.263Z,0
2022-11-22T06:32:19.002Z,0
2022-11-22T06:33:19.024Z,0
2022-11-22T06:34:19.357Z,4
2022-11-22T06:35:19.089Z,4
2022-11-22T06:36:19.507Z,0
2022-11-22T06:37:19.384Z,4
2022-11-22T06:38:19.110Z,4
2022-11-22T06:39:19.388Z,4
2022-11-22T06:40:19.390Z,8
2022-11-22T06:41:19.152Z,8
2022-11-22T06:42:18.918Z,8
2022-11-22T06:43:19.180Z,12
2022-11-22T06:44:19.459Z,8
2022-11-22T06:45:18.948Z,12
2022-11-22T06:46:19.236Z,12
2022-11-22T06:47:19.248Z,16
2022-11-22T06:48:19.528Z,16
2022-11-22T06:49:19.540Z,16
2022-11-22T06:50:26.728Z,16
2022-11-22T06:51:19.299Z,16
2022-11-22T06:52:19.315Z,20
2022-11-22T06:53:55.085Z,24
2022-11-22T06:54:19.610Z,24
2022-11-22T06:56:03.695Z,28
2022-11-22T06:56:19.649Z,28
2022-11-22T06:57:19.144Z,28
2022-11-22T06:58:19.414Z,32
2022-11-22T06:59:19.680Z,32
2022-11-22T07:00:19.464Z,32
2022-11-22T07:01:19.941Z,36
2022-11-22T07:02:19.514Z,40
2022-11-22T07:03:19.236Z,44
2022-11-22T07:04:19.762Z,48
2022-11-22T07:05:35.144Z,52
2022-11-22T07:06:19.603Z,48
2022-11-22T07:07:20.098Z,48
2022-11-22T07:08:20.982Z,52
2022-11-22T07:09:19.391Z,52
2022-11-22T07:10:19.866Z,56
2022-11-22T07:11:19.639Z,60
2022-11-22T07:12:19.366Z,64
2022-11-22T07:13:19.641Z,72
2022-11-22T07:14:19.668Z,76
2022-11-22T07:15:19.938Z,84
2022-11-22T07:16:19.694Z,92
2022-11-22T07:17:19.703Z,100
2022-11-22T07:18:19.932Z,108
2022-11-22T07:19:19.808Z,120
2022-11-22T07:20:19.753Z,132
2022-11-22T07:21:21.140Z,140
2022-11-22T07:22:19.644Z,152
2022-11-22T07:23:19.913Z,156
2022-11-22T07:24:19.818Z,164
2022-11-22T07:25:20.150Z,176
2022-11-22T07:26:19.852Z,180
2022-11-22T07:27:19.954Z,192
2022-11-22T07:28:20.144Z,200
2022-11-22T07:29:20.149Z,208
2022-11-22T07:30:20.163Z,208
2022-11-22T07:31:19.685Z,208
2022-11-22T07:32:19.938Z,220
2022-11-22T07:33:19.955Z,232
2022-11-22T07:34:19.977Z,248
2022-11-22T07:35:20.005Z,264
2022-11-22T07:36:20.296Z,276
2022-11-22T07:37:20.076Z,292
2022-11-22T07:38:20.304Z,300
2022-11-22T07:39:19.546Z,316
2022-11-22T07:40:20.054Z,340
2022-11-22T07:41:20.394Z,372
2022-11-22T07:42:26.516Z,392
2022-11-22T07:43:20.123Z,388
2022-11-22T07:44:19.913Z,384
2022-11-22T07:45:20.179Z,376
2022-11-22T07:46:20.163Z,356
2022-11-22T07:47:27.872Z,340
2022-11-22T07:48:20.456Z,336
2022-11-22T07:49:20.457Z,332
2022-11-22T07:50:20.255Z,336
2022-11-22T07:51:20.490Z,340
2022-11-22T07:52:20.514Z,348
2022-11-22T07:53:20.592Z,364
2022-11-22T07:54:20.533Z,372
2022-11-22T07:55:21.480Z,376
2022-11-22T07:56:20.579Z,380
2022-11-22T07:57:20.311Z,380
2022-11-22T07:58:20.357Z,392
2022-11-22T07:59:20.613Z,396
2022-11-22T08:00:20.640Z,404
2022-11-22T08:01:20.389Z,424
2022-11-22T08:02:20.249Z,444
2022-11-22T08:03:31.733Z,448
2022-11-22T08:04:20.686Z,444
2022-11-22T08:05:20.457Z,440
2022-11-22T08:06:20.763Z,432
2022-11-22T08:07:20.843Z,440
2022-11-22T08:08:20.251Z,452
2022-11-22T08:09:21.459Z,468
2022-11-22T08:10:20.542Z,480
2022-11-22T08:11:20.565Z,488
2022-11-22T08:12:20.575Z,488
2022-11-22T08:13:21.145Z,524
2022-11-22T08:14:20.633Z,524
2022-11-22T08:15:20.612Z,580
2022-11-22T08:16:20.614Z,600
2022-11-22T08:17:20.934Z,588
2022-11-22T08:18:20.762Z,576
2022-11-22T08:19:20.671Z,612
2022-11-22T08:20:20.693Z,640
2022-11-22T08:21:20.704Z,656
2022-11-22T08:22:20.441Z,656
2022-11-22T08:23:20.719Z,636
2022-11-22T08:24:20.741Z,644
2022-11-22T08:25:21.271Z,628
2022-11-22T08:26:21.059Z,600
2022-11-22T08:27:20.266Z,584
2022-11-22T08:28:20.810Z,584
2022-11-22T08:29:22.069Z,624
2022-11-22T08:30:21.097Z,736
2022-11-22T08:31:20.845Z,756
2022-11-22T08:32:20.852Z,760
2022-11-22T08:33:20.911Z,756
2022-11-22T08:34:20.912Z,748
2022-11-22T08:35:21.233Z,756
2022-11-22T08:36:21.183Z,776
2022-11-22T08:37:20.799Z,784
2022-11-22T08:38:20.960Z,832
2022-11-22T08:39:20.717Z,844
2022-11-22T08:40:21.260Z,864
2022-11-22T08:41:21.155Z,864
2022-11-22T08:42:21.126Z,868
2022-11-22T08:43:21.036Z,888
2022-11-22T08:44:21.074Z,908
2022-11-22T08:45:21.320Z,932
2022-11-22T08:46:21.084Z,944
2022-11-22T08:47:21.381Z,932
2022-11-22T08:48:27.599Z,924
2022-11-22T08:49:20.916Z,908
2022-11-22T08:50:21.147Z,812
2022-11-22T08:51:21.152Z,876
2022-11-22T08:52:21.179Z,888
2022-11-22T08:53:21.290Z,828
2022-11-22T08:54:21.216Z,916
2022-11-22T08:55:21.499Z,904
2022-11-22T08:56:21.538Z,880
2022-11-22T08:57:21.753Z,860
2022-11-22T08:58:21.262Z,844
2022-11-22T08:59:21.694Z,844
2022-11-22T09:00:21.542Z,840
2022-11-22T09:01:22.245Z,828
2022-11-22T09:02:21.088Z,792
2022-11-22T09:03:21.605Z,856
2022-11-22T09:04:21.373Z,932
2022-11-22T09:05:21.506Z,964
2022-11-22T09:08:41.070Z,1044
2022-11-22T09:09:45.419Z,932
2022-11-22T09:10:30.356Z,876
2022-11-22T09:11:30.360Z,816
2022-11-22T09:12:31.142Z,784
2022-11-22T09:13:30.924Z,704
2022-11-22T09:14:30.949Z,668
2022-11-22T09:15:30.698Z,660
2022-11-22T09:16:31.202Z,636
2022-11-22T09:17:30.467Z,668
2022-11-22T09:18:30.783Z,624
2022-11-22T09:19:31.651Z,632
2022-11-22T09:20:31.030Z,608
2022-11-22T09:21:31.066Z,620
2022-11-22T09:22:35.435Z,644
2022-11-22T09:23:30.575Z,624
2022-11-22T09:24:31.115Z,620
2022-11-22T09:25:30.595Z,624
2022-11-22T09:26:30.874Z,632
2022-11-22T09:27:30.873Z,624
2022-11-22T09:28:31.896Z,656
2022-11-22T09:29:32.198Z,672
2022-11-22T09:30:30.933Z,696
2022-11-22T09:31:30.930Z,712
2022-11-22T09:32:38.461Z,720
2022-11-22T09:33:30.723Z,704
2022-11-22T09:34:31.298Z,652
2022-11-22T09:35:30.737Z,712
2022-11-22T09:36:31.274Z,720
2022-11-22T09:37:31.293Z,748
2022-11-22T09:38:31.054Z,776
2022-11-22T09:39:31.680Z,768
2022-11-22T09:40:31.368Z,776
2022-11-22T09:41:31.357Z,780
2022-11-22T09:42:31.119Z,760
2022-11-22T09:43:31.393Z,788
2022-11-22T09:44:31.549Z,820
2022-11-22T09:45:31.159Z,808
2022-11-22T09:46:31.189Z,796
2022-11-22T09:47:31.189Z,824
2022-11-22T09:48:31.711Z,808
2022-11-22T09:49:32.198Z,748
2022-11-22T09:50:31.253Z,772
2022-11-22T09:51:31.258Z,764
2022-11-22T09:52:31.285Z,756
2022-11-22T09:53:31.440Z,788
2022-11-22T09:54:31.317Z,780
2022-11-22T09:55:31.897Z,760
2022-11-22T09:56:31.593Z,744
2022-11-22T09:57:31.614Z,724
2022-11-22T09:58:31.643Z,740
2022-11-22T09:59:32.195Z,752
2022-11-22T10:00:31.645Z,796
2022-11-22T10:01:32.064Z,840
2022-11-22T10:02:39.261Z,816
2022-11-22T10:03:31.740Z,780
2022-11-22T10:04:31.996Z,752
2022-11-22T10:05:31.492Z,768
2022-11-22T10:06:31.512Z,728
2022-11-22T10:07:32.066Z,704
2022-11-22T10:08:31.802Z,704
2022-11-22T10:09:32.316Z,708
2022-11-22T10:10:31.554Z,716
2022-11-22T10:11:39.065Z,684
2022-11-22T10:12:31.580Z,660
2022-11-22T10:13:31.601Z,756
2022-11-22T10:14:31.632Z,756
2022-11-22T10:15:31.890Z,700
2022-11-22T10:16:32.149Z,756
2022-11-22T10:17:31.683Z,832
2022-11-22T10:18:31.742Z,868
2022-11-22T10:19:32.799Z,976
2022-11-22T10:20:32.257Z,1080
2022-11-22T10:21:32.000Z,1032
2022-11-22T10:22:31.760Z,944
2022-11-22T10:23:32.013Z,868
2022-11-22T10:24:32.027Z,816
2022-11-22T10:25:31.784Z,776
2022-11-22T10:26:31.795Z,688
2022-11-22T10:27:32.087Z,664
2022-11-22T10:28:31.820Z,724
2022-11-22T10:29:32.827Z,712
2022-11-22T10:30:31.603Z,660
2022-11-22T10:31:31.898Z,588
2022-11-22T10:32:32.386Z,584
2022-11-22T10:33:32.162Z,588
2022-11-22T10:34:32.182Z,584
2022-11-22T10:35:32.203Z,708
2022-11-22T10:36:32.451Z,672
2022-11-22T10:37:32.238Z,676
2022-11-22T10:38:32.029Z,732
2022-11-22T10:39:40.149Z,680
2022-11-22T10:40:32.039Z,724
2022-11-22T10:41:32.336Z,704
2022-11-22T10:42:31.784Z,624
2022-11-22T10:43:32.342Z,640
2022-11-22T10:44:31.813Z,640
2022-11-22T10:45:31.837Z,652
2022-11-22T10:46:32.375Z,620
2022-11-22T10:47:39.019Z,616
2022-11-22T10:48:32.274Z,640
2022-11-22T10:49:32.779Z,664
2022-11-22T10:50:31.913Z,708
2022-11-22T10:51:32.199Z,708
2022-11-22T10:52:32.440Z,644
2022-11-22T10:53:32.254Z,660
2022-11-22T10:54:32.492Z,816
2022-11-22T10:55:31.991Z,1008
2022-11-22T10:56:32.532Z,1160
2022-11-22T10:57:32.272Z,1204
2022-11-22T10:58:32.297Z,1148
2022-11-22T10:59:37.431Z,1076
2022-11-22T11:00:32.590Z,1264
2022-11-22T11:01:32.874Z,1424
2022-11-22T11:02:32.371Z,1456
2022-11-22T11:03:32.746Z,1324
2022-11-22T11:04:32.778Z,1508
2022-11-22T11:05:32.672Z,1280
2022-11-22T11:07:20.320Z,1268
2022-11-22T11:07:33.042Z,1240
2022-11-22T11:10:29.450Z,768
2022-11-22T11:10:44.177Z,776
2022-11-22T11:11:43.908Z,728
2022-11-22T11:12:43.724Z,784
2022-11-22T11:13:44.211Z,680
2022-11-22T11:14:43.689Z,652
2022-11-22T11:15:44.002Z,716
2022-11-22T11:16:44.264Z,712
2022-11-22T11:17:44.275Z,628
2022-11-22T11:18:44.017Z,700
2022-11-22T11:19:44.201Z,744
2022-11-22T11:20:44.044Z,776
2022-11-22T11:21:43.803Z,752
2022-11-22T11:23:20.873Z,772
2022-11-22T11:23:44.216Z,760
2022-11-22T11:24:44.382Z,712
2022-11-22T11:25:44.507Z,720
2022-11-22T11:26:43.886Z,752
2022-11-22T11:27:44.408Z,788
2022-11-22T11:28:44.434Z,764
2022-11-22T11:29:45.275Z,748
2022-11-22T11:30:44.234Z,740
2022-11-22T11:31:44.471Z,752
2022-11-22T11:32:44.246Z,732
2022-11-22T11:33:44.000Z,732
2022-11-22T11:34:44.673Z,724
2022-11-22T11:35:44.147Z,724
2022-11-22T11:36:44.040Z,732
2022-11-22T11:37:44.315Z,756
2022-11-22T11:38:44.312Z,768
2022-11-22T11:39:50.712Z,792
2022-11-22T11:40:44.109Z,796
2022-11-22T11:41:50.094Z,792
2022-11-22T11:42:44.646Z,788
2022-11-22T11:43:44.147Z,788
2022-11-22T11:44:44.680Z,780
2022-11-22T11:45:44.698Z,772
2022-11-22T11:46:43.948Z,756
2022-11-22T11:47:44.727Z,744
2022-11-22T11:48:44.494Z,736
2022-11-22T11:49:44.508Z,728
2022-11-22T11:50:44.647Z,736
2022-11-22T11:51:44.907Z,744
2022-11-22T11:52:44.823Z,756
2022-11-22T11:53:44.295Z,748
2022-11-22T11:54:44.589Z,748
2022-11-22T11:55:44.989Z,752
2022-11-22T11:56:44.886Z,756
2022-11-22T11:57:44.649Z,768
2022-11-22T11:58:44.677Z,784
2022-11-22T11:59:44.483Z,800
2022-11-22T12:00:44.425Z,804
2022-11-22T12:01:46.267Z,804
2022-11-22T12:02:44.851Z,812
2022-11-22T12:03:44.207Z,772
2022-11-22T12:04:45.003Z,792
2022-11-22T12:05:44.753Z,764
2022-11-22T12:06:44.799Z,700
2022-11-22T12:07:45.356Z,660
2022-11-22T12:08:44.809Z,632
2022-11-22T12:09:45.103Z,668
2022-11-22T12:10:45.105Z,672
2022-11-22T12:11:44.989Z,700
2022-11-22T12:12:44.880Z,708
2022-11-22T12:14:42.902Z,680
2022-11-22T12:15:20.699Z,564
2022-11-22T12:16:18.860Z,612
2022-11-22T12:17:18.618Z,608
2022-11-22T12:18:18.620Z,640
2022-11-22T12:19:25.572Z,608
2022-11-22T12:20:18.125Z,572
2022-11-22T12:21:18.946Z,596
2022-11-22T12:22:52.978Z,624
2022-11-22T12:23:19.114Z,624
2022-11-22T12:48:31.678Z,876
2022-11-22T12:49:41.824Z,920
2022-11-22T12:50:41.586Z,940
2022-11-22T12:51:42.116Z,820
2022-11-22T12:52:41.625Z,908
2022-11-22T12:53:42.186Z,848
2022-11-22T12:54:42.192Z,856
2022-11-22T12:55:41.920Z,848
2022-11-22T12:56:42.217Z,832
2022-11-22T12:57:41.716Z,828
2022-11-22T12:58:41.972Z,812
2022-11-22T12:59:42.250Z,744
2022-11-22T13:00:42.278Z,748
2022-11-22T13:01:42.485Z,748
2022-11-22T13:02:42.320Z,736
2022-11-22T13:03:42.670Z,728
2022-11-22T13:04:42.462Z,760
2022-11-22T13:05:42.090Z,780
2022-11-22T13:06:42.156Z,768
2022-11-22T13:07:42.163Z,792
2022-11-22T13:08:42.398Z,776
2022-11-22T13:09:41.744Z,744
2022-11-22T13:10:41.893Z,696
2022-11-22T13:11:42.197Z,660
2022-11-22T13:12:42.453Z,636
2022-11-22T13:13:42.473Z,556
2022-11-22T13:14:42.496Z,508
2022-11-22T13:15:42.506Z,488
2022-11-22T13:16:42.297Z,488
2022-11-22T13:17:42.583Z,488
2022-11-22T13:18:42.036Z,468
2022-11-22T13:19:45.288Z,460
2022-11-22T13:20:49.605Z,480
2022-11-22T13:21:42.618Z,472
2022-11-22T13:22:42.351Z,480
2022-11-22T13:23:42.563Z,452
2022-11-22T13:24:42.656Z,440
2022-11-22T13:25:42.149Z,436
2022-11-22T13:26:42.410Z,452
2022-11-22T13:27:42.585Z,476
2022-11-22T13:28:42.442Z,500
2022-11-22T13:29:42.455Z,568
2022-11-22T13:30:42.467Z,580
2022-11-22T13:31:48.169Z,504
2022-11-22T13:32:42.507Z,464
2022-11-22T13:33:42.786Z,492
2022-11-22T13:34:42.550Z,612
2022-11-22T13:35:43.118Z,944
2022-11-22T13:36:43.002Z,1172
2022-11-22T13:37:42.872Z,1012
2022-11-22T13:38:42.346Z,1000
2022-11-22T13:39:42.903Z,976
2022-11-22T13:40:42.889Z,732
2022-11-22T13:41:42.659Z,660
2022-11-22T13:42:42.413Z,748
2022-11-22T13:43:42.927Z,704
2022-11-22T13:44:42.962Z,608
2022-11-22T13:45:42.983Z,560
2022-11-22T13:46:42.984Z,516
2022-11-22T13:47:42.745Z,472
2022-11-22T13:48:42.823Z,404
2022-11-22T13:49:53.167Z,408
2022-11-22T13:50:42.800Z,428
2022-11-22T13:51:43.440Z,420
2022-11-22T13:52:43.196Z,424
2022-11-22T13:53:42.874Z,428
2022-11-22T13:54:43.220Z,428
2022-11-22T13:55:49.317Z,420
2022-11-22T13:56:43.175Z,408
2022-11-22T13:57:42.654Z,408
2022-11-22T13:58:46.310Z,404
2022-11-22T13:59:43.191Z,400
2022-11-22T14:00:42.817Z,396
2022-11-22T14:01:43.427Z,380
2022-11-22T14:02:42.982Z,372
2022-11-22T14:03:42.738Z,364
2022-11-22T14:04:43.279Z,360
2022-11-22T14:05:48.399Z,356
2022-11-22T14:06:43.322Z,348
2022-11-22T14:07:44.156Z,352
2022-11-22T14:08:43.220Z,356
2022-11-22T14:09:43.366Z,368
2022-11-22T14:10:43.448Z,360
2022-11-22T14:11:47.487Z,368
2022-11-22T14:12:43.164Z,372
2022-11-22T14:13:43.183Z,408
2022-11-22T14:14:43.245Z,528
2022-11-22T14:15:43.181Z,492
2022-11-22T14:16:43.207Z,452
2022-11-22T14:17:48.798Z,392
2022-11-22T14:18:43.084Z,384
2022-11-22T14:19:43.505Z,356
2022-11-22T14:20:43.300Z,348
2022-11-22T14:21:43.036Z,340
2022-11-22T14:22:43.296Z,332
2022-11-22T14:23:44.053Z,320
2022-11-22T14:24:43.615Z,320
2022-11-22T14:25:43.356Z,316
2022-11-22T14:26:43.131Z,312
2022-11-22T14:27:43.396Z,312
2022-11-22T14:28:43.676Z,308
2022-11-22T14:29:43.431Z,308
2022-11-22T14:30:43.698Z,304
2022-11-22T14:31:43.711Z,300
2022-11-22T14:32:43.455Z,296
2022-11-22T14:33:43.220Z,292
2022-11-22T14:34:43.497Z,292
2022-11-22T14:35:43.756Z,288
2022-11-22T14:36:43.260Z,280
2022-11-22T14:37:43.264Z,276
2022-11-22T14:38:43.639Z,268
2022-11-22T14:39:44.663Z,264
2022-11-22T14:40:43.717Z,260
2022-11-22T14:41:43.934Z,256
2022-11-22T14:42:43.621Z,252